createdAt,value
2023-01-18T00:01:43.958Z,55.10
2023-01-18T00:04:16.291Z,46.80
2023-01-18T00:06:48.539Z,44.80
2023-01-18T00:09:20.813Z,56.20
2023-01-18T00:11:52.743Z,52.60
2023-01-18T00:14:24.804Z,53.40
2023-01-18T00:16:57.023Z,36.00
2023-01-18T00:19:28.990Z,57.80
2023-01-18T00:22:00.840Z,57.40
2023-01-18T00:24:33.301Z,53.90
2023-01-18T00:27:05.245Z,49.50
2023-01-18T00:29:37.116Z,48.00
2023-01-18T00:32:09.252Z,47.20
2023-01-18T00:34:42.083Z,52.20
2023-01-18T00:37:13.899Z,44.00
2023-01-18T00:39:45.777Z,43.60
2023-01-18T00:42:35.196Z,45.90
2023-01-18T00:45:08.430Z,48.40
2023-01-18T00:47:40.309Z,46.60
2023-01-18T00:50:13.719Z,56.60
2023-01-18T00:52:46.502Z,62.50
2023-01-18T00:55:19.185Z,48.90
2023-01-18T00:57:51.067Z,57.10
2023-01-18T01:00:29.020Z,47.50
2023-01-18T01:03:01.518Z,56.40
2023-01-18T01:05:51.505Z,47.80
2023-01-18T01:08:23.752Z,56.80
2023-01-18T01:11:05.652Z,41.80
2023-01-18T01:13:55.646Z,43.20
2023-01-18T01:16:45.191Z,47.10
2023-01-18T01:19:34.632Z,47.50
2023-01-18T01:22:24.825Z,54.30
2023-01-18T01:25:14.497Z,51.70
2023-01-18T01:27:46.761Z,42.40
2023-01-18T01:30:18.920Z,45.80
2023-01-18T01:32:50.997Z,53.20
2023-01-18T01:35:22.905Z,46.20
2023-01-18T01:37:54.919Z,44.50
2023-01-18T01:40:26.890Z,53.20
2023-01-18T01:42:59.123Z,42.60
2023-01-18T01:45:32.800Z,44.10
2023-01-18T01:48:04.755Z,37.80
2023-01-18T01:50:39.233Z,50.00
2023-01-18T01:53:12.013Z,50.00
2023-01-18T01:55:43.779Z,57.20
2023-01-18T01:58:18.703Z,46.70
2023-01-18T02:00:50.566Z,56.30
2023-01-18T02:03:25.097Z,53.70
2023-01-18T02:06:00.945Z,46.80
2023-01-18T02:08:32.785Z,47.10
2023-01-18T02:11:04.804Z,51.90
2023-01-18T02:13:37.225Z,54.00
2023-01-18T02:16:15.369Z,48.90
2023-01-18T02:18:50.753Z,39.90
2023-01-18T02:21:23.051Z,45.60
2023-01-18T02:24:23.516Z,47.20
2023-01-18T02:27:06.873Z,42.10
2023-01-18T02:30:10.425Z,43.10
2023-01-18T02:32:50.873Z,47.90
2023-01-18T02:35:29.826Z,21.20
2023-01-18T02:38:08.343Z,44.30
2023-01-18T02:40:46.745Z,36.40
2023-01-18T02:43:37.869Z,41.20
2023-01-18T02:46:31.113Z,27.20
2023-01-18T02:49:05.855Z,43.30
2023-01-18T02:51:38.566Z,29.40
2023-01-18T02:54:11.646Z,41.90
2023-01-18T02:56:46.582Z,37.40
2023-01-18T02:59:20.073Z,46.20
2023-01-18T03:01:54.178Z,37.90
2023-01-18T03:07:00.486Z,37.10
2023-01-18T03:09:33.537Z,39.00
2023-01-18T03:12:10.063Z,28.40
2023-01-18T03:14:46.610Z,36.90
2023-01-18T03:17:22.782Z,37.00
2023-01-18T03:20:08.873Z,38.30
2023-01-18T03:23:00.241Z,39.30
2023-01-18T03:25:34.684Z,43.90
2023-01-18T03:28:26.776Z,26.90
2023-01-18T03:31:18.598Z,43.10
2023-01-18T03:33:53.713Z,37.70
2023-01-18T03:36:28.360Z,40.50
2023-01-18T03:39:03.064Z,36.80
2023-01-18T03:41:36.628Z,26.40
2023-01-18T03:44:10.708Z,39.00
2023-01-18T03:49:13.450Z,44.40
2023-01-18T03:51:54.860Z,27.80
2023-01-18T03:54:34.752Z,26.70
2023-01-18T03:57:09.981Z,33.50
2023-01-18T03:59:42.168Z,37.90
2023-01-18T04:02:14.260Z,30.70
2023-01-18T04:04:46.285Z,44.50
2023-01-18T04:07:18.285Z,40.00
2023-01-18T04:09:50.048Z,43.60
2023-01-18T04:12:22.048Z,42.50
2023-01-18T04:14:53.939Z,45.30
2023-01-18T04:17:25.984Z,44.90
2023-01-18T04:19:57.836Z,26.20
2023-01-18T04:22:29.996Z,36.80
2023-01-18T04:25:01.821Z,46.20
2023-01-18T04:27:33.821Z,48.80
2023-01-18T04:30:07.206Z,34.10
2023-01-18T04:32:39.559Z,24.70
2023-01-18T04:35:11.923Z,53.70
2023-01-18T04:37:43.922Z,44.80
2023-01-18T04:40:16.895Z,32.40
2023-01-18T04:42:54.484Z,30.00
2023-01-18T04:45:26.586Z,39.30
2023-01-18T04:47:58.650Z,32.90
2023-01-18T04:50:30.516Z,34.90
2023-01-18T04:53:02.612Z,46.90
2023-01-18T04:55:34.554Z,37.20
2023-01-18T04:58:06.342Z,38.00
2023-01-18T05:00:40.226Z,37.00
2023-01-18T05:05:43.185Z,27.40
2023-01-18T05:08:15.074Z,38.50
2023-01-18T05:10:46.904Z,39.00
2023-01-18T05:13:18.801Z,53.80
2023-01-18T05:15:52.531Z,55.10
2023-01-18T05:18:24.445Z,49.80
2023-01-18T05:20:56.567Z,44.40
2023-01-18T05:23:28.493Z,39.20
2023-01-18T05:26:00.880Z,36.80
2023-01-18T05:28:32.717Z,42.70
2023-01-18T05:31:04.716Z,47.40
2023-01-18T05:33:36.506Z,46.90
2023-01-18T05:36:09.357Z,21.40
2023-01-18T05:38:41.417Z,50.90
2023-01-18T05:41:13.488Z,41.60
2023-01-18T05:43:45.588Z,50.80
2023-01-18T05:46:17.395Z,57.90
2023-01-18T05:48:49.213Z,44.50
2023-01-18T05:51:20.983Z,42.60
2023-01-18T05:53:52.911Z,53.00
2023-01-18T05:56:25.156Z,43.70
2023-01-18T05:58:57.209Z,41.90
2023-01-18T06:01:29.306Z,45.90
2023-01-18T06:04:01.180Z,37.30
2023-01-18T06:06:34.748Z,34.90
2023-01-18T06:09:06.759Z,15.60
2023-01-18T06:11:38.525Z,40.70
2023-01-18T06:14:10.520Z,27.70
2023-01-18T06:16:42.577Z,33.20
2023-01-18T06:19:14.702Z,20.90
2023-01-18T06:21:47.205Z,33.30
2023-01-18T06:24:19.078Z,29.10
2023-01-18T06:26:50.941Z,19.80
2023-01-18T06:29:22.991Z,34.70
2023-01-18T06:31:54.951Z,28.10
2023-01-18T06:34:28.968Z,18.80
2023-01-18T06:37:02.859Z,26.90
2023-01-18T06:39:35.353Z,28.90
2023-01-18T06:42:07.911Z,25.40
2023-01-18T06:44:39.805Z,24.80
2023-01-18T06:47:11.820Z,20.20
2023-01-18T06:49:44.644Z,23.30
2023-01-18T06:52:17.292Z,10.00
2023-01-18T06:54:52.096Z,23.10
2023-01-18T06:57:24.287Z,7.30
2023-01-18T06:59:56.398Z,20.30
2023-01-18T07:02:28.843Z,22.10
2023-01-18T07:05:01.563Z,11.40
2023-01-18T07:07:34.843Z,20.80
2023-01-18T07:10:08.035Z,21.20
2023-01-18T07:12:40.066Z,16.90
2023-01-18T07:15:21.564Z,17.00
2023-01-18T07:17:54.127Z,20.30
2023-01-18T07:20:26.138Z,15.90
2023-01-18T07:22:59.228Z,19.80
2023-01-18T07:25:31.901Z,18.80
2023-01-18T07:28:04.940Z,10.60
2023-01-18T07:30:36.948Z,18.80
2023-01-18T07:33:08.870Z,13.30
2023-01-18T07:35:40.930Z,7.80
2023-01-18T07:38:12.912Z,16.30
2023-01-18T07:40:46.859Z,11.40
2023-01-18T07:43:19.212Z,14.30
2023-01-18T07:45:55.541Z,11.70
2023-01-18T07:48:27.880Z,11.60
2023-01-18T07:51:01.230Z,12.50
2023-01-18T07:53:35.638Z,13.30
2023-01-18T07:58:39.683Z,4.90
2023-01-18T08:01:13.415Z,12.40
2023-01-18T08:03:47.453Z,6.70
2023-01-18T08:06:24.981Z,8.20
2023-01-18T08:08:59.660Z,12.20
2023-01-18T08:11:32.649Z,10.50
2023-01-18T08:14:04.382Z,5.50
2023-01-18T08:16:36.354Z,7.40
2023-01-18T08:19:08.175Z,7.40
2023-01-18T08:21:40.389Z,6.50
2023-01-18T08:24:13.158Z,6.30
2023-01-18T08:26:45.143Z,5.20
2023-01-18T08:29:17.085Z,8.20
2023-01-18T08:31:49.005Z,5.40
2023-01-18T08:34:22.353Z,4.60
2023-01-18T08:36:54.496Z,6.30
2023-01-18T08:39:26.688Z,10.20
2023-01-18T08:41:58.776Z,2.80
2023-01-18T08:44:30.705Z,5.80
2023-01-18T08:47:03.407Z,6.30
2023-01-18T08:49:36.145Z,6.80
2023-01-18T08:52:11.049Z,6.70
2023-01-18T08:54:42.869Z,4.00
2023-01-18T08:57:14.736Z,8.10
2023-01-18T08:59:46.598Z,5.60
2023-01-18T09:02:18.765Z,5.60
2023-01-18T09:04:51.131Z,4.90
2023-01-18T09:07:23.190Z,5.10
2023-01-18T09:09:55.114Z,5.90
2023-01-18T09:12:27.103Z,4.10
2023-01-18T09:14:59.057Z,3.20
2023-01-18T09:17:31.241Z,5.00
2023-01-18T09:20:03.515Z,1.30
2023-01-18T09:22:36.185Z,3.90
2023-01-18T09:25:10.716Z,4.10
2023-01-18T09:27:43.426Z,4.30
2023-01-18T09:30:17.263Z,3.40
2023-01-18T09:35:22.002Z,4.50
2023-01-18T09:37:55.076Z,8.00
2023-01-18T09:40:37.740Z,4.30
2023-01-18T09:43:18.543Z,2.20
2023-01-18T09:45:50.543Z,3.10
2023-01-18T09:48:32.866Z,4.10
2023-01-18T09:51:10.044Z,4.00
2023-01-18T09:53:56.485Z,3.30
2023-01-18T09:56:30.887Z,5.40
2023-01-18T09:59:10.300Z,5.10
2023-01-18T10:01:42.325Z,3.60
2023-01-18T10:04:19.018Z,5.10
2023-01-18T10:06:53.977Z,5.90
2023-01-18T10:09:27.632Z,3.10
2023-01-18T10:12:01.769Z,5.90
2023-01-18T10:17:14.267Z,2.90
2023-01-18T10:19:46.650Z,3.10
2023-01-18T10:22:23.477Z,3.70
2023-01-18T10:25:02.155Z,7.30
2023-01-18T10:27:42.222Z,3.50
2023-01-18T10:30:34.336Z,2.50
2023-01-18T10:33:14.362Z,6.00
2023-01-18T10:35:50.091Z,5.50
2023-01-18T10:38:25.452Z,5.10
2023-01-18T10:41:01.044Z,6.40
2023-01-18T10:43:34.124Z,4.50
2023-01-18T10:46:13.602Z,3.20
2023-01-18T10:48:47.454Z,3.50
2023-01-18T10:51:35.410Z,3.70
2023-01-18T10:54:24.796Z,4.80
2023-01-18T10:57:05.463Z,4.20
2023-01-18T10:59:39.813Z,3.70
2023-01-18T11:02:23.603Z,4.10
2023-01-18T11:05:01.700Z,4.00
2023-01-18T11:07:34.059Z,4.70
2023-01-18T11:10:09.765Z,3.70
2023-01-18T11:12:48.576Z,2.60
2023-01-18T11:15:26.079Z,2.40
2023-01-18T11:18:08.882Z,5.70
2023-01-18T11:20:50.195Z,5.20
2023-01-18T11:23:27.020Z,3.30
2023-01-18T11:26:01.926Z,3.60
2023-01-18T11:28:40.506Z,8.00
2023-01-18T11:31:17.213Z,3.90
2023-01-18T11:33:54.540Z,4.00
2023-01-18T11:36:37.692Z,4.30
2023-01-18T11:39:28.376Z,5.50
2023-01-18T11:42:30.648Z,2.80
2023-01-18T11:45:15.272Z,4.00
2023-01-18T11:47:57.702Z,4.70
2023-01-18T11:50:33.507Z,3.40
2023-01-18T11:53:14.277Z,3.90
2023-01-18T11:55:55.970Z,6.50
2023-01-18T11:58:30.241Z,6.90
2023-01-18T12:01:23.032Z,5.60
2023-01-18T12:04:02.580Z,13.10
2023-01-18T12:06:43.924Z,23.70
2023-01-18T12:09:33.085Z,12.50
2023-01-18T12:12:19.391Z,5.80
2023-01-18T12:15:06.669Z,4.50
2023-01-18T12:17:54.617Z,4.80
2023-01-18T12:20:35.928Z,4.20
2023-01-18T12:23:40.515Z,4.00
2023-01-18T12:26:26.365Z,5.50
2023-01-18T12:29:11.861Z,4.20
2023-01-18T12:31:57.466Z,3.90
2023-01-18T12:34:35.157Z,3.70
2023-01-18T12:37:24.031Z,2.50
2023-01-18T12:40:13.364Z,3.30
2023-01-18T12:42:52.149Z,3.40
2023-01-18T12:45:32.157Z,4.00
2023-01-18T12:48:11.022Z,2.70
2023-01-18T12:50:43.703Z,2.70
2023-01-18T12:53:19.233Z,3.80
2023-01-18T12:55:54.221Z,4.30
2023-01-18T12:58:28.187Z,3.60
2023-01-18T13:03:36.236Z,3.40
2023-01-18T13:06:09.995Z,2.30
2023-01-18T13:08:45.898Z,3.90
2023-01-18T13:11:20.940Z,3.40
2023-01-18T13:13:56.973Z,7.10
2023-01-18T13:16:39.564Z,4.50
2023-01-18T13:19:13.081Z,3.70
2023-01-18T13:21:53.216Z,4.20
2023-01-18T13:24:34.298Z,4.00
2023-01-18T13:27:14.239Z,4.60
2023-01-18T13:29:46.599Z,2.60
2023-01-18T13:32:34.544Z,4.20
2023-01-18T13:35:21.267Z,3.20
2023-01-18T13:37:56.390Z,4.90
2023-01-18T13:40:34.923Z,4.80
2023-01-18T13:43:07.833Z,4.90
2023-01-18T13:46:03.740Z,3.90
2023-01-18T13:48:46.453Z,4.20
2023-01-18T13:51:53.165Z,2.50
2023-01-18T13:54:56.031Z,4.90
2023-01-18T13:57:28.037Z,4.50
2023-01-18T14:00:01.517Z,4.60
2023-01-18T14:02:42.028Z,4.70
2023-01-18T14:05:25.730Z,4.80
2023-01-18T14:08:00.200Z,4.70
2023-01-18T14:10:36.936Z,7.70
2023-01-18T14:13:09.754Z,6.60
2023-01-18T14:15:50.779Z,6.00
2023-01-18T14:18:28.000Z,4.20
2023-01-18T14:21:11.458Z,6.60
2023-01-18T14:24:06.603Z,3.40
2023-01-18T14:26:41.373Z,6.00
2023-01-18T14:29:17.123Z,4.80
2023-01-18T14:31:52.070Z,5.50
2023-01-18T14:34:32.547Z,4.60
2023-01-18T14:37:05.422Z,5.80
2023-01-18T14:39:37.186Z,3.30
2023-01-18T14:42:12.424Z,6.10
2023-01-18T14:44:58.134Z,5.20
2023-01-18T14:47:33.941Z,6.80
2023-01-18T14:50:07.507Z,4.60
2023-01-18T14:52:40.073Z,3.60
2023-01-18T14:55:26.008Z,6.60
2023-01-18T14:58:05.748Z,6.10
2023-01-18T15:00:44.894Z,9.90
2023-01-18T15:03:23.950Z,4.60
2023-01-18T15:06:03.117Z,8.20
2023-01-18T15:08:35.922Z,5.10
2023-01-18T15:11:09.378Z,4.50
2023-01-18T15:13:49.282Z,5.60
2023-01-18T15:16:23.811Z,12.60
2023-01-18T15:18:56.751Z,4.50
2023-01-18T15:21:31.407Z,5.10
2023-01-18T15:24:06.371Z,4.20
2023-01-18T15:26:43.963Z,5.50
2023-01-18T15:29:18.758Z,8.40
2023-01-18T15:31:55.535Z,4.30
2023-01-18T15:34:33.403Z,4.80
2023-01-18T15:37:07.066Z,5.10
2023-01-18T15:39:50.995Z,6.80
2023-01-18T15:42:31.267Z,8.20
2023-01-18T15:45:03.271Z,6.20
2023-01-18T15:47:37.816Z,5.20
2023-01-18T15:50:19.660Z,6.60
2023-01-18T15:53:02.183Z,7.60
2023-01-18T15:55:36.447Z,7.30
2023-01-18T16:00:43.310Z,3.20
2023-01-18T16:03:23.041Z,5.40
2023-01-18T16:06:08.113Z,7.70
2023-01-18T16:08:41.059Z,6.60
2023-01-18T16:11:29.736Z,7.90
2023-01-18T16:14:02.723Z,9.20
2023-01-18T16:16:37.658Z,8.40
2023-01-18T16:19:20.999Z,6.40
2023-01-18T16:21:54.794Z,15.40
2023-01-18T16:24:38.885Z,8.10
2023-01-18T16:27:15.954Z,19.50
2023-01-18T16:29:49.439Z,8.20
2023-01-18T16:32:31.768Z,14.10
2023-01-18T16:35:11.677Z,6.80
2023-01-18T16:37:44.722Z,20.70
2023-01-18T16:40:18.369Z,9.00
2023-01-18T16:43:01.807Z,11.60
2023-01-18T16:45:34.687Z,8.00
2023-01-18T16:48:08.933Z,17.10
2023-01-18T16:50:40.906Z,12.00
2023-01-18T16:53:13.270Z,20.70
2023-01-18T16:55:45.240Z,19.70
2023-01-18T16:58:18.460Z,16.60
2023-01-18T17:00:58.345Z,24.40
2023-01-18T17:03:30.273Z,13.30
2023-01-18T17:06:02.033Z,23.40
2023-01-18T17:08:34.495Z,24.30
2023-01-18T17:11:06.559Z,35.10
2023-01-18T17:13:38.839Z,26.60
2023-01-18T17:16:16.936Z,27.80
2023-01-18T17:18:49.973Z,30.20
2023-01-18T17:21:21.745Z,33.30
2023-01-18T17:23:54.037Z,18.30
2023-01-18T17:26:25.819Z,22.80
2023-01-18T17:28:58.139Z,30.80
2023-01-18T17:31:30.777Z,20.80
2023-01-18T17:34:03.527Z,21.30
2023-01-18T17:36:35.303Z,18.10
2023-01-18T17:39:07.349Z,31.50
2023-01-18T17:41:39.122Z,26.80
2023-01-18T17:44:11.305Z,12.50
2023-01-18T17:46:43.322Z,19.90
2023-01-18T17:49:15.329Z,31.90
2023-01-18T17:51:47.098Z,20.10
2023-01-18T17:54:20.902Z,29.00
2023-01-18T17:59:23.547Z,31.70
2023-01-18T18:01:55.440Z,29.00
2023-01-18T18:04:27.688Z,21.20
2023-01-18T18:06:59.797Z,23.50
2023-01-18T18:09:32.642Z,34.80
2023-01-18T18:12:05.150Z,13.90
2023-01-18T18:14:38.112Z,26.10
2023-01-18T18:17:10.446Z,26.30
2023-01-18T18:19:42.578Z,28.70
2023-01-18T18:22:14.416Z,31.40
2023-01-18T18:24:48.633Z,46.70
2023-01-18T18:27:21.887Z,26.90
2023-01-18T18:29:54.293Z,43.60
2023-01-18T18:32:26.495Z,28.80
2023-01-18T18:34:59.262Z,48.70
2023-01-18T18:37:33.196Z,13.20
2023-01-18T18:42:36.167Z,25.70
2023-01-18T18:45:10.236Z,24.20
2023-01-18T18:50:14.017Z,19.90
2023-01-18T18:52:46.214Z,27.90
2023-01-18T18:55:19.355Z,35.90
2023-01-18T18:57:51.167Z,43.90
2023-01-18T19:00:25.179Z,39.40
2023-01-18T19:03:02.437Z,33.50
2023-01-18T19:05:35.468Z,47.10
2023-01-18T19:08:07.628Z,38.20
2023-01-18T19:10:39.714Z,24.70
2023-01-18T19:13:12.077Z,47.40
2023-01-18T19:15:48.893Z,47.70
2023-01-18T19:18:20.993Z,46.70
2023-01-18T19:20:53.997Z,28.40
2023-01-18T19:23:26.153Z,32.20
2023-01-18T19:25:59.019Z,55.40
2023-01-18T19:28:30.873Z,46.90
2023-01-18T19:31:07.438Z,58.70
2023-01-18T19:33:39.231Z,50.80
2023-01-18T19:36:14.760Z,37.70
2023-01-18T19:38:52.543Z,59.10
2023-01-18T19:41:27.831Z,55.70
2023-01-18T19:43:59.695Z,68.80
2023-01-18T19:46:32.049Z,60.20
2023-01-18T19:49:03.913Z,53.20
2023-01-18T19:51:40.472Z,38.30
2023-01-18T19:54:12.665Z,56.40
2023-01-18T19:56:45.033Z,36.40
2023-01-18T19:59:16.838Z,51.20
2023-01-18T20:01:48.860Z,68.90
2023-01-18T20:04:20.851Z,68.90
2023-01-18T20:06:52.790Z,54.10
2023-01-18T20:09:38.374Z,41.20
2023-01-18T20:12:15.243Z,52.20
2023-01-18T20:14:47.334Z,39.10
2023-01-18T20:17:19.521Z,40.40
2023-01-18T20:19:54.127Z,32.90
2023-01-18T20:22:26.296Z,33.80
2023-01-18T20:24:58.117Z,36.40
2023-01-18T20:27:30.113Z,34.10
2023-01-18T20:30:01.824Z,47.00
2023-01-18T20:32:34.489Z,28.00
2023-01-18T20:35:07.103Z,41.20
2023-01-18T20:37:39.126Z,45.50
2023-01-18T20:40:13.360Z,47.60
2023-01-18T20:42:45.555Z,33.40
2023-01-18T20:45:17.623Z,37.20
2023-01-18T20:47:49.594Z,34.00
2023-01-18T20:50:23.369Z,26.20
2023-01-18T20:52:56.261Z,36.70
2023-01-18T20:55:30.481Z,24.90
2023-01-18T20:58:02.488Z,30.00
2023-01-18T21:00:34.276Z,36.10
2023-01-18T21:03:06.540Z,43.80
2023-01-18T21:05:38.481Z,44.20
2023-01-18T21:08:11.013Z,30.00
2023-01-18T21:10:43.155Z,25.70
2023-01-18T21:13:14.917Z,43.80
2023-01-18T21:15:46.808Z,42.40
2023-01-18T21:18:18.824Z,42.80
2023-01-18T21:20:55.190Z,42.00
2023-01-18T21:23:27.827Z,38.80
2023-01-18T21:26:01.719Z,65.20
2023-01-18T21:31:04.443Z,45.40
2023-01-18T21:33:36.776Z,48.10
2023-01-18T21:36:10.957Z,27.90
2023-01-18T21:38:43.315Z,48.10
2023-01-18T21:41:32.817Z,35.90
2023-01-18T21:44:22.611Z,33.80
2023-01-18T21:46:55.132Z,43.90
2023-01-18T21:50:15.435Z,41.30
2023-01-18T21:52:53.833Z,27.10
2023-01-18T21:55:25.886Z,39.00
2023-01-18T21:58:15.629Z,37.70
2023-01-18T22:00:47.977Z,44.70
2023-01-18T22:03:20.764Z,45.10
2023-01-18T22:05:52.815Z,36.40
2023-01-18T22:08:24.583Z,44.20
2023-01-18T22:10:56.541Z,42.50
2023-01-18T22:13:28.785Z,49.20
2023-01-18T22:16:07.717Z,40.00
2023-01-18T22:18:39.792Z,31.20
2023-01-18T22:21:11.783Z,60.50
2023-01-18T22:23:43.817Z,58.00
2023-01-18T22:26:15.902Z,33.00
2023-01-18T22:28:48.399Z,43.70
2023-01-18T22:31:20.453Z,43.90
2023-01-18T22:33:52.331Z,44.80
2023-01-18T22:36:24.712Z,28.20
2023-01-18T22:38:56.699Z,52.90
2023-01-18T22:41:30.287Z,40.30
2023-01-18T22:44:02.062Z,39.30
2023-01-18T22:46:33.993Z,29.40
2023-01-18T22:49:05.943Z,37.00
2023-01-18T22:51:37.895Z,50.40
2023-01-18T22:54:09.663Z,34.00
2023-01-18T22:56:41.656Z,38.60
2023-01-18T22:59:15.298Z,45.40
2023-01-18T23:01:47.277Z,42.60
2023-01-18T23:04:19.117Z,40.30
2023-01-18T23:06:54.796Z,45.40
2023-01-18T23:09:26.841Z,55.40
2023-01-18T23:11:58.935Z,45.80
2023-01-18T23:14:48.549Z,40.10
2023-01-18T23:17:38.332Z,41.10
2023-01-18T23:20:14.874Z,47.10
2023-01-18T23:22:46.737Z,47.10
2023-01-18T23:25:19.224Z,45.20
2023-01-18T23:27:51.251Z,44.20
2023-01-18T23:30:23.284Z,49.60
2023-01-18T23:32:55.288Z,47.10
2023-01-18T23:35:27.292Z,47.20
2023-01-18T23:38:01.152Z,54.50
2023-01-18T23:40:51.081Z,38.60
2023-01-18T23:43:40.588Z,52.70
2023-01-18T23:46:29.925Z,42.50
2023-01-18T23:49:19.556Z,51.10
2023-01-18T23:52:08.857Z,46.60
2023-01-18T23:54:41.296Z,49.70
2023-01-18T23:57:14.778Z,43.10
2023-01-18T23:59:46.632Z,54.70
